Wetterdaten: Donnerstag, 08.04.2010
Datum Zeit Temp. A. Feuchte A. Luftdruck Regen Wind Richtung Richtung Sonnenschein UV Solar Windben
08.04.2010 00:00 10,4 C 66 % 1017,4 hPa 0,0 mm 0,0 km/h (0 Bft) S-SW 202 0 min 0 UV-I 0 W/m 4,8 km/h (1 Bft)
08.04.2010 00:10 10,8 C 65 % 1017,4 hPa 0,0 mm 1,6 km/h (1 Bft) SO 135 0 min 0 UV-I 0 W/m 4,8 km/h (1 Bft)
08.04.2010 00:20 10,7 C 65 % 1017,4 hPa 0,0 mm 0,0 km/h (0 Bft) SO 135 0 min 0 UV-I 0 W/m 3,2 km/h (1 Bft)
08.04.2010 00:30 10,6 C 66 % 1017,4 hPa 0,0 mm 1,6 km/h (1 Bft) SO 135 0 min 0 UV-I 0 W/m 3,2 km/h (1 Bft)
08.04.2010 00:40 10,5 C 65 % 1017,4 hPa 0,0 mm 1,6 km/h (1 Bft) O-SO 112 0 min 0 UV-I 0 W/m 6,4 km/h (2 Bft)
08.04.2010 00:50 10,5 C 65 % 1017,5 hPa 0,0 mm 1,6 km/h (1 Bft) O-SO 112 0 min 0 UV-I 0 W/m 6,4 km/h (2 Bft)
08.04.2010 01:00 10,6 C 65 % 1017,5 hPa 0,0 mm 3,2 km/h (1 Bft) O-SO 112 0 min 0 UV-I 0 W/m 8,0 km/h (2 Bft)
08.04.2010 01:10 10,6 C 65 % 1017,4 hPa 0,0 mm 3,2 km/h (1 Bft) O-SO 112 0 min 0 UV-I 0 W/m 9,7 km/h (2 Bft)
08.04.2010 01:20 10,6 C 65 % 1017,5 hPa 0,0 mm 1,6 km/h (1 Bft) O-SO 112 0 min 0 UV-I 0 W/m 4,8 km/h (1 Bft)
08.04.2010 01:30 10,7 C 65 % 1017,5 hPa 0,0 mm 1,6 km/h (1 Bft) O-SO 112 0 min 0 UV-I 0 W/m 6,4 km/h (2 Bft)
08.04.2010 01:40 10,4 C 66 % 1017,6 hPa 0,0 mm 0,0 km/h (0 Bft) N 0 0 min 0 UV-I 0 W/m 0,0 km/h (0 Bft)
08.04.2010 01:50 9,7 C 69 % 1017,5 hPa 0,0 mm 0,0 km/h (0 Bft) SO 135 0 min 0 UV-I 0 W/m 3,2 km/h (1 Bft)
08.04.2010 02:00 9,2 C 70 % 1017,4 hPa 0,0 mm 1,6 km/h (1 Bft) O-SO 112 0 min 0 UV-I 0 W/m 4,8 km/h (1 Bft)
08.04.2010 02:10 9,4 C 68 % 1017,3 hPa 0,0 mm 0,0 km/h (0 Bft) O-SO 112 0 min 0 UV-I 0 W/m 3,2 km/h (1 Bft)
08.04.2010 02:20 9,4 C 69 % 1017,3 hPa 0,0 mm 0,0 km/h (0 Bft) N 0 0 min 0 UV-I 0 W/m 0,0 km/h (0 Bft)
08.04.2010 02:30 9,0 C 70 % 1017,4 hPa 0,0 mm 0,0 km/h (0 Bft) O-SO 112 0 min 0 UV-I 0 W/m 1,6 km/h (1 Bft)
08.04.2010 02:40 8,9 C 70 % 1017,4 hPa 0,0 mm 0,0 km/h (0 Bft) O-SO 112 0 min 0 UV-I 0 W/m 1,6 km/h (1 Bft)
08.04.2010 02:50 8,8 C 70 % 1017,5 hPa 0,0 mm 0,0 km/h (0 Bft) N 0 0 min 0 UV-I 0 W/m 0,0 km/h (0 Bft)
08.04.2010 03:00 8,7 C 71 % 1017,6 hPa 0,0 mm 0,0 km/h (0 Bft) O-SO 112 0 min 0 UV-I 0 W/m 1,6 km/h (1 Bft)
08.04.2010 03:10 8,6 C 72 % 1017,6 hPa 0,0 mm 0,0 km/h (0 Bft) O-SO 112 0 min 0 UV-I 0 W/m 1,6 km/h (1 Bft)
08.04.2010 03:20 8,5 C 72 % 1017,6 hPa 0,0 mm 0,0 km/h (0 Bft) N 0 0 min 0 UV-I 0 W/m 0,0 km/h (0 Bft)
08.04.2010 03:30 8,1 C 74 % 1017,7 hPa 0,0 mm 0,0 km/h (0 Bft) N 0 0 min 0 UV-I 0 W/m 0,0 km/h (0 Bft)
08.04.2010 03:40 7,8 C 75 % 1017,7 hPa 0,0 mm 0,0 km/h (0 Bft) O-SO 112 0 min 0 UV-I 0 W/m 1,6 km/h (1 Bft)
08.04.2010 03:50 7,6 C 75 % 1017,7 hPa 0,0 mm 0,0 km/h (0 Bft) O-SO 112 0 min 0 UV-I 0 W/m 1,6 km/h (1 Bft)
08.04.2010 04:00 7,8 C 74 % 1017,8 hPa 0,0 mm 0,0 km/h (0 Bft) N 0 0 min 0 UV-I 0 W/m 0,0 km/h (0 Bft)
08.04.2010 04:10 7,6 C 75 % 1017,8 hPa 0,0 mm 0,0 km/h (0 Bft) O-SO 112 0 min 0 UV-I 0 W/m 1,6 km/h (1 Bft)
08.04.2010 04:20 7,3 C 77 % 1017,9 hPa 0,0 mm 0,0 km/h (0 Bft) O-SO 112 0 min 0 UV-I 0 W/m 1,6 km/h (1 Bft)
08.04.2010 04:30 7,1 C 77 % 1018,0 hPa 0,0 mm 0,0 km/h (0 Bft) O-SO 112 0 min 0 UV-I 0 W/m 1,6 km/h (1 Bft)
08.04.2010 04:40 7,0 C 78 % 1018,1 hPa 0,0 mm 0,0 km/h (0 Bft) N 0 0 min 0 UV-I 0 W/m 0,0 km/h (0 Bft)
08.04.2010 04:50 7,1 C 78 % 1018,1 hPa 0,0 mm 0,0 km/h (0 Bft) N 0 0 min 0 UV-I 0 W/m 0,0 km/h (0 Bft)
08.04.2010 05:00 6,9 C 78 % 1018,2 hPa 0,0 mm 0,0 km/h (0 Bft) N 0 0 min 0 UV-I 0 W/m 0,0 km/h (0 Bft)
08.04.2010 05:10 6,9 C 79 % 1018,3 hPa 0,0 mm 0,0 km/h (0 Bft) N 0 0 min 0 UV-I 0 W/m 0,0 km/h (0 Bft)
08.04.2010 05:20 6,8 C 79 % 1018,4 hPa 0,0 mm 0,0 km/h (0 Bft) N 0 0 min 0 UV-I 0 W/m 0,0 km/h (0 Bft)
08.04.2010 05:30 6,7 C 80 % 1018,5 hPa 0,0 mm 0,0 km/h (0 Bft) N 0 0 min 0 UV-I 0 W/m 0,0 km/h (0 Bft)
08.04.2010 05:40 6,8 C 79 % 1018,6 hPa 0,0 mm 0,0 km/h (0 Bft) N 0 0 min 0 UV-I 0 W/m 0,0 km/h (0 Bft)
08.04.2010 05:50 6,8 C 79 % 1018,7 hPa 0,0 mm 0,0 km/h (0 Bft) N 0 0 min 0 UV-I 0 W/m 0,0 km/h (0 Bft)
08.04.2010 06:00 6,8 C 79 % 1018,8 hPa 0,0 mm 0,0 km/h (0 Bft) N 0 0 min 0 UV-I 0 W/m 0,0 km/h (0 Bft)
08.04.2010 06:10 6,9 C 78 % 1018,8 hPa 0,0 mm 0,0 km/h (0 Bft) N 0 0 min 0 UV-I 0 W/m 0,0 km/h (0 Bft)
08.04.2010 06:20 6,7 C 79 % 1019,0 hPa 0,0 mm 0,0 km/h (0 Bft) N 0 0 min 0 UV-I 0 W/m 0,0 km/h (0 Bft)
08.04.2010 06:30 6,7 C 79 % 1019,0 hPa 0,0 mm 0,0 km/h (0 Bft) O-SO 112 0 min 0 UV-I 0 W/m 1,6 km/h (1 Bft)
08.04.2010 06:40 6,8 C 79 % 1019,2 hPa 0,0 mm 0,0 km/h (0 Bft) N 0 0 min 0 UV-I 0 W/m 0,0 km/h (0 Bft)
08.04.2010 06:50 6,7 C 80 % 1019,2 hPa 0,0 mm 0,0 km/h (0 Bft) N 0 0 min 0 UV-I 5 W/m 0,0 km/h (0 Bft)
08.04.2010 07:00 6,7 C 80 % 1019,4 hPa 0,0 mm 0,0 km/h (0 Bft) N 0 0 min 0 UV-I 9 W/m 0,0 km/h (0 Bft)
08.04.2010 07:10 6,5 C 81 % 1019,6 hPa 0,0 mm 0,0 km/h (0 Bft) O-SO 112 0 min 0 UV-I 16 W/m 1,6 km/h (1 Bft)
08.04.2010 07:20 6,5 C 82 % 1019,6 hPa 0,0 mm 0,0 km/h (0 Bft) O-SO 112 0 min 0 UV-I 26 W/m 1,6 km/h (1 Bft)
08.04.2010 07:30 6,8 C 81 % 1019,7 hPa 0,0 mm 0,0 km/h (0 Bft) N 0 0 min 0 UV-I 42 W/m 0,0 km/h (0 Bft)
08.04.2010 07:40 7,2 C 80 % 1019,9 hPa 0,0 mm 0,0 km/h (0 Bft) N 0 0 min 0 UV-I 49 W/m 0,0 km/h (0 Bft)
08.04.2010 07:50 7,4 C 81 % 1020,1 hPa 0,0 mm 0,0 km/h (0 Bft) N 0 0 min 0 UV-I 53 W/m 0,0 km/h (0 Bft)
08.04.2010 08:00 7,8 C 81 % 1020,3 hPa 0,0 mm 0,1 km/h (0 Bft) O-SO 109 0 min 0 UV-I 46 W/m 1,6 km/h (1 Bft)
08.04.2010 08:10 7,8 C 81 % 1020,3 hPa 0,0 mm 0,0 km/h (0 Bft) N 0 0 min 0 UV-I 54 W/m 0,0 km/h (0 Bft)
08.04.2010 08:20 8,1 C 80 % 1020,5 hPa 0,0 mm 0,0 km/h (0 Bft) O-SO 112 0 min 0 UV-I 70 W/m 1,6 km/h (1 Bft)
08.04.2010 08:30 8,4 C 80 % 1020,6 hPa 0,0 mm 0,0 km/h (0 Bft) N 0 0 min 0 UV-I 79 W/m 0,0 km/h (0 Bft)
08.04.2010 08:40 8,6 C 80 % 1020,8 hPa 0,0 mm 0,0 km/h (0 Bft) S-SO 157 0 min 0 UV-I 98 W/m 1,6 km/h (1 Bft)
08.04.2010 08:50 8,8 C 79 % 1021,0 hPa 0,0 mm 1,6 km/h (1 Bft) W-SW 247 0 min 0 UV-I 97 W/m 6,4 km/h (2 Bft)
08.04.2010 09:00 8,9 C 79 % 1021,1 hPa 0,0 mm 1,6 km/h (1 Bft) W-SW 247 0 min 1 UV-I 121 W/m 6,4 km/h (2 Bft)
08.04.2010 09:10 8,9 C 78 % 1021,3 hPa 0,0 mm 1,6 km/h (1 Bft) W-SW 247 0 min 1 UV-I 151 W/m 6,4 km/h (2 Bft)
08.04.2010 09:20 9,1 C 78 % 1021,4 hPa 0,0 mm 1,6 km/h (1 Bft) W-SW 247 0 min 1 UV-I 149 W/m 6,4 km/h (2 Bft)
08.04.2010 09:30 9,2 C 77 % 1021,5 hPa 0,0 mm 1,6 km/h (1 Bft) W 270 0 min 1 UV-I 155 W/m 6,4 km/h (2 Bft)
08.04.2010 09:40 9,4 C 76 % 1021,6 hPa 0,0 mm 1,6 km/h (1 Bft) W 270 0 min 1 UV-I 197 W/m 4,8 km/h (1 Bft)
08.04.2010 09:50 9,7 C 74 % 1021,7 hPa 0,0 mm 0,0 km/h (0 Bft) W 270 10 min 1 UV-I 260 W/m 4,8 km/h (1 Bft)
08.04.2010 10:00 10,2 C 73 % 1021,8 hPa 0,0 mm 0,0 km/h (0 Bft) W 270 0 min 1 UV-I 250 W/m 4,8 km/h (1 Bft)
08.04.2010 10:10 10,6 C 72 % 1021,9 hPa 0,0 mm 0,0 km/h (0 Bft) W 270 0 min 1 UV-I 227 W/m 4,8 km/h (1 Bft)
08.04.2010 10:20 10,8 C 71 % 1022,0 hPa 0,0 mm 3,2 km/h (1 Bft) W-SW 247 10 min 1 UV-I 288 W/m 9,7 km/h (2 Bft)
08.04.2010 10:30 11,2 C 71 % 1022,1 hPa 0,0 mm 3,2 km/h (1 Bft) W 270 0 min 1 UV-I 216 W/m 8,0 km/h (2 Bft)
08.04.2010 10:40 11,4 C 70 % 1022,3 hPa 0,0 mm 3,2 km/h (1 Bft) W-SW 247 10 min 1 UV-I 338 W/m 8,0 km/h (2 Bft)
08.04.2010 10:50 11,8 C 70 % 1022,4 hPa 0,0 mm 1,6 km/h (1 Bft) W-SW 247 0 min 1 UV-I 292 W/m 6,4 km/h (2 Bft)
08.04.2010 11:00 12,3 C 68 % 1022,5 hPa 0,0 mm 3,2 km/h (1 Bft) SW 225 10 min 2 UV-I 352 W/m 9,7 km/h (2 Bft)
08.04.2010 11:10 12,6 C 69 % 1022,7 hPa 0,0 mm 3,2 km/h (1 Bft) W 270 0 min 2 UV-I 267 W/m 11,3 km/h (2 Bft)
08.04.2010 11:20 12,7 C 70 % 1022,7 hPa 0,0 mm 3,2 km/h (1 Bft) W 270 0 min 2 UV-I 315 W/m 11,3 km/h (2 Bft)
08.04.2010 11:30 12,9 C 68 % 1022,8 hPa 0,0 mm 3,2 km/h (1 Bft) W 270 0 min 2 UV-I 294 W/m 11,3 km/h (2 Bft)
08.04.2010 11:40 13,2 C 66 % 1022,9 hPa 0,0 mm 4,8 km/h (1 Bft) W-NW 292 10 min 2 UV-I 397 W/m 11,3 km/h (2 Bft)
08.04.2010 11:50 13,5 C 65 % 1022,9 hPa 0,0 mm 3,2 km/h (1 Bft) N-NW 337 10 min 2 UV-I 387 W/m 9,7 km/h (2 Bft)
08.04.2010 12:00 13,8 C 64 % 1022,9 hPa 0,0 mm 1,6 km/h (1 Bft) W 270 10 min 2 UV-I 401 W/m 4,8 km/h (1 Bft)
08.04.2010 12:10 14,1 C 64 % 1023,0 hPa 0,0 mm 1,6 km/h (1 Bft) N-NO 22 10 min 2 UV-I 432 W/m 8,0 km/h (2 Bft)
08.04.2010 12:20 14,3 C 63 % 1023,1 hPa 0,0 mm 3,2 km/h (1 Bft) W-NW 292 0 min 2 UV-I 374 W/m 9,7 km/h (2 Bft)
08.04.2010 12:30 14,2 C 64 % 1023,2 hPa 0,0 mm 4,8 km/h (1 Bft) NW 315 0 min 2 UV-I 346 W/m 14,5 km/h (3 Bft)
08.04.2010 12:40 14,0 C 66 % 1023,3 hPa 0,0 mm 3,2 km/h (1 Bft) W-NW 292 0 min 1 UV-I 192 W/m 14,5 km/h (3 Bft)
08.04.2010 12:50 13,8 C 67 % 1023,4 hPa 0,0 mm 1,6 km/h (1 Bft) W-NW 292 0 min 1 UV-I 158 W/m 9,7 km/h (2 Bft)
08.04.2010 13:00 13,7 C 67 % 1023,6 hPa 0,0 mm 4,8 km/h (1 Bft) W-NW 292 0 min 1 UV-I 160 W/m 17,7 km/h (3 Bft)
08.04.2010 13:10 13,5 C 68 % 1023,8 hPa 0,0 mm 3,2 km/h (1 Bft) NW 315 0 min 1 UV-I 163 W/m 17,7 km/h (3 Bft)
08.04.2010 13:20 13,4 C 69 % 1023,9 hPa 0,0 mm 3,2 km/h (1 Bft) W-NW 292 0 min 1 UV-I 165 W/m 9,7 km/h (2 Bft)
08.04.2010 13:30 13,3 C 70 % 1023,9 hPa 0,0 mm 4,8 km/h (1 Bft) NW 315 0 min 1 UV-I 206 W/m 14,5 km/h (3 Bft)
08.04.2010 13:40 13,3 C 70 % 1024,0 hPa 0,0 mm 4,8 km/h (1 Bft) NW 315 0 min 1 UV-I 227 W/m 14,5 km/h (3 Bft)
08.04.2010 13:50 13,4 C 71 % 1024,1 hPa 0,0 mm 3,2 km/h (1 Bft) NW 315 0 min 2 UV-I 229 W/m 11,3 km/h (2 Bft)
08.04.2010 14:00 13,3 C 74 % 1024,1 hPa 0,0 mm 3,2 km/h (1 Bft) W-NW 292 0 min 1 UV-I 188 W/m 14,5 km/h (3 Bft)
08.04.2010 14:10 13,1 C 76 % 1024,3 hPa 0,0 mm 4,8 km/h (1 Bft) W-NW 292 0 min 1 UV-I 158 W/m 16,1 km/h (3 Bft)
08.04.2010 14:20 12,8 C 79 % 1024,3 hPa 0,0 mm 1,6 km/h (1 Bft) W-NW 292 0 min 1 UV-I 137 W/m 9,7 km/h (2 Bft)
08.04.2010 14:30 12,6 C 81 % 1024,5 hPa 0,0 mm 1,6 km/h (1 Bft) W-NW 292 0 min 1 UV-I 134 W/m 9,7 km/h (2 Bft)
08.04.2010 14:40 12,5 C 82 % 1024,6 hPa 0,0 mm 1,6 km/h (1 Bft) NW 315 0 min 1 UV-I 132 W/m 8,0 km/h (2 Bft)
08.04.2010 14:50 12,4 C 83 % 1024,5 hPa 0,0 mm 1,6 km/h (1 Bft) W-NW 292 0 min 1 UV-I 144 W/m 6,4 km/h (2 Bft)
08.04.2010 15:00 12,3 C 83 % 1024,5 hPa 0,0 mm 1,6 km/h (1 Bft) N 360 0 min 1 UV-I 142 W/m 6,4 km/h (2 Bft)
08.04.2010 15:10 12,3 C 83 % 1024,6 hPa 0,0 mm 1,6 km/h (1 Bft) W-NW 292 0 min 1 UV-I 142 W/m 6,4 km/h (2 Bft)
08.04.2010 15:20 12,3 C 84 % 1024,6 hPa 0,0 mm 0,0 km/h (0 Bft) W-NW 292 0 min 1 UV-I 162 W/m 4,8 km/h (1 Bft)
08.04.2010 15:30 12,3 C 85 % 1024,7 hPa 0,0 mm 1,6 km/h (1 Bft) NW 315 0 min 1 UV-I 128 W/m 8,0 km/h (2 Bft)
08.04.2010 15:40 12,2 C 85 % 1024,8 hPa 0,0 mm 1,6 km/h (1 Bft) NW 315 0 min 1 UV-I 79 W/m 6,4 km/h (2 Bft)
08.04.2010 15:50 12,1 C 86 % 1024,8 hPa 0,0 mm 0,0 km/h (0 Bft) NW 315 0 min 1 UV-I 86 W/m 4,8 km/h (1 Bft)
08.04.2010 16:00 12,0 C 86 % 1024,8 hPa 0,0 mm 2,1 km/h (1 Bft) W-NW 300 0 min 0 UV-I 63 W/m 4,8 km/h (1 Bft)
08.04.2010 16:10 11,9 C 87 % 1024,8 hPa 0,0 mm 1,6 km/h (1 Bft) W-NW 292 0 min 1 UV-I 65 W/m 6,4 km/h (2 Bft)
08.04.2010 16:20 11,9 C 87 % 1024,9 hPa 0,0 mm 0,0 km/h (0 Bft) W-NW 292 0 min 0 UV-I 47 W/m 4,8 km/h (1 Bft)
08.04.2010 16:30 11,8 C 87 % 1025,0 hPa 0,0 mm 0,0 km/h (0 Bft) W-NW 292 0 min 0 UV-I 53 W/m 4,8 km/h (1 Bft)
08.04.2010 16:40 11,8 C 88 % 1025,0 hPa 0,0 mm 0,0 km/h (0 Bft) NW 315 0 min 1 UV-I 91 W/m 4,8 km/h (1 Bft)
08.04.2010 16:50 11,8 C 87 % 1025,0 hPa 0,0 mm 0,0 km/h (0 Bft) NW 315 0 min 1 UV-I 86 W/m 4,8 km/h (1 Bft)
08.04.2010 17:00 11,9 C 88 % 1025,1 hPa 0,0 mm 1,6 km/h (1 Bft) W-NW 292 0 min 0 UV-I 65 W/m 6,4 km/h (2 Bft)
08.04.2010 17:10 11,9 C 88 % 1025,1 hPa 0,0 mm 1,6 km/h (1 Bft) W-NW 292 0 min 0 UV-I 62 W/m 6,4 km/h (2 Bft)
08.04.2010 17:20 11,9 C 88 % 1025,2 hPa 0,0 mm 1,6 km/h (1 Bft) W-NW 292 0 min 0 UV-I 51 W/m 4,8 km/h (1 Bft)
08.04.2010 17:30 11,8 C 87 % 1025,4 hPa 0,0 mm 1,6 km/h (1 Bft) W-NW 292 0 min 0 UV-I 44 W/m 6,4 km/h (2 Bft)
08.04.2010 17:40 11,8 C 87 % 1025,4 hPa 0,0 mm 1,6 km/h (1 Bft) NW 315 0 min 0 UV-I 60 W/m 8,0 km/h (2 Bft)
08.04.2010 17:50 11,8 C 87 % 1025,5 hPa 0,0 mm 1,6 km/h (1 Bft) NW 315 0 min 0 UV-I 76 W/m 8,0 km/h (2 Bft)
08.04.2010 18:00 11,9 C 86 % 1025,5 hPa 0,0 mm 1,6 km/h (1 Bft) NW 315 0 min 0 UV-I 72 W/m 6,4 km/h (2 Bft)
08.04.2010 18:10 11,9 C 86 % 1025,6 hPa 0,0 mm 3,2 km/h (1 Bft) W-NW 292 0 min 0 UV-I 40 W/m 9,7 km/h (2 Bft)
08.04.2010 18:20 11,7 C 86 % 1025,8 hPa 0,0 mm 6,4 km/h (2 Bft) W-NW 292 0 min 0 UV-I 5 W/m 17,7 km/h (3 Bft)
08.04.2010 18:30 11,2 C 87 % 1025,9 hPa 0,0 mm 4,8 km/h (1 Bft) W-NW 292 0 min 0 UV-I 7 W/m 14,5 km/h (3 Bft)
08.04.2010 18:40 10,8 C 88 % 1026,0 hPa 0,0 mm 3,2 km/h (1 Bft) W-NW 292 0 min 0 UV-I 11 W/m 11,3 km/h (2 Bft)
08.04.2010 18:50 10,6 C 88 % 1026,1 hPa 0,0 mm 3,2 km/h (1 Bft) W-NW 292 0 min 0 UV-I 21 W/m 12,9 km/h (3 Bft)
08.04.2010 19:00 10,5 C 88 % 1026,3 hPa 0,0 mm 4,8 km/h (1 Bft) W-NW 292 0 min 0 UV-I 16 W/m 17,7 km/h (3 Bft)
08.04.2010 19:10 10,4 C 88 % 1026,5 hPa 0,0 mm 3,2 km/h (1 Bft) NW 315 0 min 0 UV-I 16 W/m 14,5 km/h (3 Bft)
08.04.2010 19:20 10,3 C 86 % 1026,5 hPa 0,0 mm 3,2 km/h (1 Bft) N-NO 22 0 min 0 UV-I 18 W/m 14,5 km/h (3 Bft)
08.04.2010 19:30 10,3 C 86 % 1026,7 hPa 0,0 mm 1,6 km/h (1 Bft) N 360 0 min 0 UV-I 19 W/m 14,5 km/h (3 Bft)
08.04.2010 19:40 10,4 C 86 % 1026,8 hPa 0,0 mm 1,6 km/h (1 Bft) N-NW 337 0 min 0 UV-I 7 W/m 6,4 km/h (2 Bft)
08.04.2010 19:50 10,3 C 85 % 1026,8 hPa 0,0 mm 3,2 km/h (1 Bft) W-NW 292 0 min 0 UV-I 5 W/m 11,3 km/h (2 Bft)
08.04.2010 20:00 10,3 C 86 % 1027,0 hPa 0,0 mm 1,6 km/h (1 Bft) W 270 0 min 0 UV-I 0 W/m 9,7 km/h (2 Bft)
08.04.2010 20:10 10,3 C 86 % 1027,0 hPa 0,0 mm 1,6 km/h (1 Bft) W-NW 292 0 min 0 UV-I 0 W/m 8,0 km/h (2 Bft)
08.04.2010 20:20 10,3 C 85 % 1027,1 hPa 0,0 mm 1,6 km/h (1 Bft) NW 315 0 min 0 UV-I 0 W/m 4,8 km/h (1 Bft)
08.04.2010 20:30 10,3 C 86 % 1027,2 hPa 0,0 mm 1,6 km/h (1 Bft) NW 315 0 min 0 UV-I 0 W/m 6,4 km/h (2 Bft)
08.04.2010 20:40 10,3 C 86 % 1027,3 hPa 0,0 mm 1,6 km/h (1 Bft) W-NW 292 0 min 0 UV-I 0 W/m 9,7 km/h (2 Bft)
08.04.2010 20:50 10,3 C 86 % 1027,4 hPa 0,0 mm 1,6 km/h (1 Bft) W-NW 292 0 min 0 UV-I 0 W/m 8,0 km/h (2 Bft)
08.04.2010 21:00 10,3 C 85 % 1027,5 hPa 0,0 mm 3,2 km/h (1 Bft) NW 315 0 min 0 UV-I 0 W/m 11,3 km/h (2 Bft)
08.04.2010 21:10 10,1 C 83 % 1027,7 hPa 0,0 mm 3,2 km/h (1 Bft) NW 315 0 min 0 UV-I 0 W/m 16,1 km/h (3 Bft)
08.04.2010 21:20 10,1 C 82 % 1027,8 hPa 0,0 mm 1,6 km/h (1 Bft) W-NW 292 0 min 0 UV-I 0 W/m 11,3 km/h (2 Bft)
08.04.2010 21:30 9,9 C 81 % 1027,9 hPa 0,0 mm 1,6 km/h (1 Bft) W-NW 292 0 min 0 UV-I 0 W/m 6,4 km/h (2 Bft)
08.04.2010 21:40 9,7 C 81 % 1028,1 hPa 0,0 mm 1,6 km/h (1 Bft) W-NW 292 0 min 0 UV-I 0 W/m 9,7 km/h (2 Bft)
08.04.2010 21:50 9,5 C 82 % 1028,3 hPa 0,0 mm 0,0 km/h (0 Bft) W-NW 292 0 min 0 UV-I 0 W/m 4,8 km/h (1 Bft)
08.04.2010 22:00 9,2 C 83 % 1028,4 hPa 0,0 mm 0,0 km/h (0 Bft) N-NO 22 0 min 0 UV-I 0 W/m 6,4 km/h (2 Bft)
08.04.2010 22:10 9,1 C 83 % 1028,5 hPa 0,0 mm 0,0 km/h (0 Bft) N-NO 22 0 min 0 UV-I 0 W/m 1,6 km/h (1 Bft)
08.04.2010 22:20 8,9 C 84 % 1028,5 hPa 0,0 mm 0,0 km/h (0 Bft) N 0 0 min 0 UV-I 0 W/m 0,0 km/h (0 Bft)
08.04.2010 22:30 8,8 C 84 % 1028,6 hPa 0,0 mm 0,0 km/h (0 Bft) N 0 0 min 0 UV-I 0 W/m 0,0 km/h (0 Bft)
08.04.2010 22:40 8,7 C 84 % 1028,6 hPa 0,0 mm 0,0 km/h (0 Bft) N-NO 22 0 min 0 UV-I 0 W/m 1,6 km/h (1 Bft)
08.04.2010 22:50 8,7 C 85 % 1028,6 hPa 0,0 mm 0,0 km/h (0 Bft) N-NO 22 0 min 0 UV-I 0 W/m 1,6 km/h (1 Bft)
08.04.2010 23:00 8,7 C 85 % 1028,7 hPa 0,0 mm 0,0 km/h (0 Bft) N-NO 22 0 min 0 UV-I 0 W/m 1,6 km/h (1 Bft)
08.04.2010 23:10 8,5 C 85 % 1028,7 hPa 0,0 mm 0,0 km/h (0 Bft) N-NO 22 0 min 0 UV-I 0 W/m 1,6 km/h (1 Bft)
08.04.2010 23:20 8,4 C 86 % 1028,8 hPa 0,0 mm 0,0 km/h (0 Bft) N-NO 22 0 min 0 UV-I 0 W/m 1,6 km/h (1 Bft)
08.04.2010 23:30 8,4 C 86 % 1028,9 hPa 0,0 mm 0,0 km/h (0 Bft) N-NO 22 0 min 0 UV-I 0 W/m 4,8 km/h (1 Bft)
08.04.2010 23:40 8,3 C 82 % 1029,1 hPa 0,0 mm 1,6 km/h (1 Bft) W-NW 292 0 min 0 UV-I 0 W/m 14,5 km/h (3 Bft)
08.04.2010 23:50 8,1 C 78 % 1029,1 hPa 0,0 mm 1,6 km/h (1 Bft) NW 315 0 min 0 UV-I 0 W/m 9,7 km/h (2 Bft)
_ Min-Zeit 07:10 12:20 02:10 - 00:00 - - - - - 01:40
Minimum _ 6,4 C 63 % 1017,3 hPa - 0,0 km/h (0 Bft) - - - - - 0,0 km/h (0 Bft)
_ Max-Zeit 12:20 16:40 23:40 00:00 18:20 - - 09:50 12:10 12:10 13:00
Maximum _ 14,3 C 88 % 1029,1 hPa 0,0 mm 6,4 km/h
W-NW (2 Bft)
- - 10 min 2 UV-I 432 W/m 17,7 km/h
NW (3 Bft)
Durchschnitt _ 10,1 C 78 % 1022,6 hPa #0,0 mm 1,4 km/h (1 Bft) W-NW - #1:20 h 1 UV-I 139 W/m 6,0 km/h (2 Bft)